Arlington, TX (76016)

8:08 AM CDT on August 02, 2015 (GMT -0500)
CHAPPARAL VALLEY | | Change Station
CLOSE
Current Station
Personal Weather Station
Location: Arlington, TX
Elevation: 643 ft
Nearby Weather Stations

Elev 643 ft 32.70 °N, 97.19 °W | Updated 9 seconds ago

Partly Cloudy
Partly Cloudy
80.2 °F
Feels Like 81 °F
N
1.3
Wind Variable Wind from SE
Gusts 2.9 mph

Today
High -- | Low -- °F
--% Chance of Precip.
Yesterday
High -- | Low -- °F
Precip. -- in
6:43 AM 8:26 PM
Waning Gibbous, 94% visible
Pressure 29.94 in
Visibility 10.0 miles
Clouds Clear
Heat Index 81 °F
Dew Point 62 °F
Humidity 53%
Rainfall 0.00 in
Snow Depth Not available.
UV 1 out of 12
Pollen 4.60 out of 12
Air Quality Not available.
Flu Activity Not available.
METAR KGKY 021253Z 16005KT 10SM CLR 27/16 A2997 RMK AO2 SLP136 T02720156 $

More Conditions Fewer Conditions

Pressure 29.94 in
Visibility 10.0 miles
Clouds Clear
Heat Index 81 °F
Dew Point 62 °F
Humidity 53%
Rainfall 0.00 in
Snow Depth Not available.
UV 1 out of 12
Pollen 4.60 out of 12
Air Quality Not available.
Flu Activity Not available.
METAR KGKY 021253Z 16005KT 10SM CLR 27/16 A2997 RMK AO2 SLP136 T02720156 $

More Conditions Fewer Conditions

Nowcast | as of 5:58 am CDT on August 2, 2015

Widely scattered light showers or sprinkles will occur along and west of a Bridgeport...to Mineral Wells...to Hamilton line through mid morning. Only a few hundredths to a trace of rainfall will occur with this activity. Otherwise...warm conditions will prevail with light east or southeast winds 5 to 10 mph. Skies will range from mostly cloudy west...to mostly clear east.

×

10-Day Weather Forecast

×

Almanac

Astronomy

Aug. 02, 2015 Rise Set
Actual Time
Civil Twilight
Nautical Twilight
Astronomical Twilight
Moon
Length of Visible Light
Length of Day
Tomorrow will be .
, % of the Moon is Illuminated

Today's Extremes

State Highs State Lows

Community

WunderPhotos

Upload Photos

1,843,240 photos uploaded!

WunderBlogs® & News

Nearby

Air Quality

  Air Quality AQ Index Pollutant
Not available.

Snow Depth

Station Depth Elevation

Earthquake Activity

City Distance Mag. Time & Date
Minimum magnitude displayed is 2.5.

Coastal Water Temperatures

Place Temperature

Stations

Nearby Weather Stations

Station Location Temp. Windchill Dew Point Humidity Wind Precip. Elev Updated Type